sensor_id;sensor_type;location;lat;lon;timestamp;pressure;altitude;pressure_sealevel;temperature;humidity
13934;BME280;7039;52.168;9.866;2023-04-15T12:06:12;100057.53;;;9.29;100.00
13934;BME280;7039;52.168;9.866;2023-04-15T12:08:48;100053.09;;;9.31;100.00
13934;BME280;7039;52.168;9.866;2023-04-15T12:11:15;100072.13;;;9.49;100.00
13934;BME280;7039;52.168;9.866;2023-04-15T12:13:43;100070.22;;;9.52;100.00
13934;BME280;7039;52.168;9.866;2023-04-15T12:16:12;100074.53;;;9.69;100.00
13934;BME280;7039;52.168;9.866;2023-04-15T12:18:39;100080.44;;;9.73;100.00
13934;BME280;7039;52.168;9.866;2023-04-15T12:23:49;100082.47;;;9.83;100.00
13934;BME280;7039;52.168;9.866;2023-04-15T12:26:16;100078.97;;;9.67;100.00
13934;BME280;7039;52.168;9.866;2023-04-15T12:28:43;100079.69;;;9.53;100.00
13934;BME280;7039;52.168;9.866;2023-04-15T12:31:11;100090.25;;;9.68;100.00
13934;BME280;7039;52.168;9.866;2023-04-15T12:33:38;100088.84;;;9.78;100.00
13934;BME280;7039;52.168;9.866;2023-04-15T12:38:43;100095.25;;;9.88;100.00
13934;BME280;7039;52.168;9.866;2023-04-15T12:41:11;100095.22;;;9.72;100.00
13934;BME280;7039;52.168;9.866;2023-04-15T12:43:37;100093.63;;;9.70;100.00
13934;BME280;7039;52.168;9.866;2023-04-15T12:48:39;100098.91;;;9.68;100.00
13934;BME280;7039;52.168;9.866;2023-04-15T12:51:09;100104.28;;;9.65;100.00
13934;BME280;7039;52.168;9.866;2023-04-15T12:53:36;100104.59;;;9.59;100.00
13934;BME280;7039;52.168;9.866;2023-04-15T12:56:03;100106.56;;;9.71;100.00
13934;BME280;7039;52.168;9.866;2023-04-15T12:58:32;100116.84;;;9.90;100.00
13934;BME280;7039;52.168;9.866;2023-04-15T13:00:58;100116.59;;;9.79;100.00
13934;BME280;7039;52.168;9.866;2023-04-15T13:03:25;100115.06;;;9.75;100.00
13934;BME280;7039;52.168;9.866;2023-04-15T13:05:52;100122.63;;;9.79;100.00
13934;BME280;7039;52.168;9.866;2023-04-15T13:08:32;100124.31;;;9.96;100.00
13934;BME280;7039;52.168;9.866;2023-04-15T13:11:01;100125.94;;;10.15;100.00
13934;BME280;7039;52.168;9.866;2023-04-15T13:23:54;100137.56;;;10.09;100.00
13934;BME280;7039;52.168;9.866;2023-04-15T13:26:46;100143.00;;;10.38;100.00
13934;BME280;7039;52.168;9.866;2023-04-15T13:29:23;100147.72;;;10.31;100.00
13934;BME280;7039;52.168;9.866;2023-04-15T13:37:15;100146.59;;;10.35;100.00
13934;BME280;7039;52.168;9.866;2023-04-15T13:39:47;100147.59;;;10.64;100.00
13934;BME280;7039;52.168;9.866;2023-04-15T13:42:33;100150.56;;;10.42;100.00
13934;BME280;7039;52.168;9.866;2023-04-15T13:45:01;100149.81;;;10.56;99.70
13934;BME280;7039;52.168;9.866;2023-04-15T13:47:28;100144.50;;;10.42;100.00
13934;BME280;7039;52.168;9.866;2023-04-15T13:49:58;100147.53;;;10.50;100.00
13934;BME280;7039;52.168;9.866;2023-04-15T13:52:26;100151.22;;;10.62;100.00
13934;BME280;7039;52.168;9.866;2023-04-15T13:55:13;100168.34;;;10.98;98.69
13934;BME280;7039;52.168;9.866;2023-04-15T13:57:43;100163.50;;;10.76;97.99
13934;BME280;7039;52.168;9.866;2023-04-15T14:00:22;100166.75;;;11.11;97.91
13934;BME280;7039;52.168;9.866;2023-04-15T14:02:49;100150.28;;;11.25;96.88
13934;BME280;7039;52.168;9.866;2023-04-15T14:05:17;100145.13;;;11.23;96.57
13934;BME280;7039;52.168;9.866;2023-04-15T14:07:45;100140.94;;;11.21;96.04
13934;BME280;7039;52.168;9.866;2023-04-15T14:10:25;100153.06;;;11.22;95.78
13934;BME280;7039;52.168;9.866;2023-04-15T14:12:54;100163.81;;;11.32;95.16
13934;BME280;7039;52.168;9.866;2023-04-15T14:15:40;100173.25;;;11.48;94.17
13934;BME280;7039;52.168;9.866;2023-04-15T14:20:48;100180.84;;;11.53;92.22
13934;BME280;7039;52.168;9.866;2023-04-15T14:23:14;100183.28;;;11.56;93.33
13934;BME280;7039;52.168;9.866;2023-04-15T14:25:42;100180.34;;;11.46;95.27
13934;BME280;7039;52.168;9.866;2023-04-15T14:28:09;100184.25;;;11.39;94.65
13934;BME280;7039;52.168;9.866;2023-04-15T14:30:35;100181.44;;;11.58;93.56
13934;BME280;7039;52.168;9.866;2023-04-15T14:33:02;100184.94;;;11.57;93.57
13934;BME280;7039;52.168;9.866;2023-04-15T14:35:28;100194.19;;;12.07;92.32
13934;BME280;7039;52.168;9.866;2023-04-15T14:38:09;100186.59;;;12.17;91.28
13934;BME280;7039;52.168;9.866;2023-04-15T14:40:36;100198.25;;;12.54;90.18
13934;BME280;7039;52.168;9.866;2023-04-15T14:43:04;100193.56;;;12.74;88.30
13934;BME280;7039;52.168;9.866;2023-04-15T14:45:31;100203.72;;;12.79;88.60
13934;BME280;7039;52.168;9.866;2023-04-15T14:47:57;100200.75;;;12.98;87.37
13934;BME280;7039;52.168;9.866;2023-04-15T14:50:24;100207.94;;;12.81;87.36
13934;BME280;7039;52.168;9.866;2023-04-15T14:52:51;100207.78;;;13.24;86.82
13934;BME280;7039;52.168;9.866;2023-04-15T14:55:17;100212.31;;;13.35;84.75
13934;BME280;7039;52.168;9.866;2023-04-15T14:57:44;100209.66;;;13.49;83.82
13934;BME280;7039;52.168;9.866;2023-04-15T15:00:12;100210.56;;;13.35;85.83
13934;BME280;7039;52.168;9.866;2023-04-15T15:02:39;100202.56;;;13.77;84.90
13934;BME280;7039;52.168;9.866;2023-04-15T15:05:09;100214.06;;;13.87;82.53
13934;BME280;7039;52.168;9.866;2023-04-15T15:07:37;100209.16;;;13.70;81.98
13934;BME280;7039;52.168;9.866;2023-04-15T15:10:05;100210.31;;;13.78;81.89
13934;BME280;7039;52.168;9.866;2023-04-15T15:12:33;100208.41;;;13.68;82.69
13934;BME280;7039;52.168;9.866;2023-04-15T15:15:01;100212.53;;;13.72;81.76
13934;BME280;7039;52.168;9.866;2023-04-15T15:17:29;100210.81;;;13.71;82.20
13934;BME280;7039;52.168;9.866;2023-04-15T15:19:57;100213.47;;;13.84;81.97
13934;BME280;7039;52.168;9.866;2023-04-15T15:22:24;100202.97;;;13.84;80.38
13934;BME280;7039;52.168;9.866;2023-04-15T15:24:51;100212.41;;;13.86;81.73
13934;BME280;7039;52.168;9.866;2023-04-15T15:27:18;100209.34;;;13.67;82.38
13934;BME280;7039;52.168;9.866;2023-04-15T15:29:45;100219.84;;;14.31;81.30
13934;BME280;7039;52.168;9.866;2023-04-15T15:32:13;100224.25;;;14.30;80.74
13934;BME280;7039;52.168;9.866;2023-04-15T15:34:41;100215.53;;;14.30;80.93
13934;BME280;7039;52.168;9.866;2023-04-15T15:37:07;100220.03;;;14.40;80.04
13934;BME280;7039;52.168;9.866;2023-04-15T15:39:34;100223.00;;;14.36;80.76
13934;BME280;7039;52.168;9.866;2023-04-15T15:42:00;100213.19;;;14.51;80.36
13934;BME280;7039;52.168;9.866;2023-04-15T15:44:27;100221.91;;;14.64;80.62
13934;BME280;7039;52.168;9.866;2023-04-15T15:46:54;100230.94;;;14.60;80.57
13934;BME280;7039;52.168;9.866;2023-04-15T15:49:20;100225.09;;;14.05;82.24
13934;BME280;7039;52.168;9.866;2023-04-15T15:51:48;100226.06;;;13.78;83.40
13934;BME280;7039;52.168;9.866;2023-04-15T15:54:14;100225.41;;;13.75;83.05
13934;BME280;7039;52.168;9.866;2023-04-15T15:56:41;100232.66;;;13.84;84.41
13934;BME280;7039;52.168;9.866;2023-04-15T15:59:08;100228.84;;;13.75;84.57
13934;BME280;7039;52.168;9.866;2023-04-15T16:01:34;100223.19;;;13.69;85.36
13934;BME280;7039;52.168;9.866;2023-04-15T16:04:01;100229.16;;;13.71;85.29
13934;BME280;7039;52.168;9.866;2023-04-15T16:06:27;100235.00;;;13.49;85.37
13934;BME280;7039;52.168;9.866;2023-04-15T16:08:55;100233.41;;;13.19;87.14
13934;BME280;7039;52.168;9.866;2023-04-15T16:11:22;100243.94;;;13.05;87.95
13934;BME280;7039;52.168;9.866;2023-04-15T16:13:49;100237.91;;;12.90;88.95
13934;BME280;7039;52.168;9.866;2023-04-15T16:16:16;100243.56;;;13.11;89.12
13934;BME280;7039;52.168;9.866;2023-04-15T16:18:42;100248.47;;;13.30;88.28
13934;BME280;7039;52.168;9.866;2023-04-15T16:21:09;100242.16;;;13.05;88.14
13934;BME280;7039;52.168;9.866;2023-04-15T16:23:36;100238.75;;;12.76;89.09
13934;BME280;7039;52.168;9.866;2023-04-15T16:26:03;100250.13;;;12.89;90.09
13934;BME280;7039;52.168;9.866;2023-04-15T16:28:30;100246.84;;;13.00;88.69
13934;BME280;7039;52.168;9.866;2023-04-15T16:30:57;100254.94;;;13.10;89.03
13934;BME280;7039;52.168;9.866;2023-04-15T16:33:26;100253.59;;;13.71;87.51
13934;BME280;7039;52.168;9.866;2023-04-15T16:35:54;100259.44;;;13.49;86.24
13934;BME280;7039;52.168;9.866;2023-04-15T16:38:20;100256.25;;;13.44;87.02
13934;BME280;7039;52.168;9.866;2023-04-15T16:40:46;100264.09;;;13.17;88.47
13934;BME280;7039;52.168;9.866;2023-04-15T16:43:14;100261.59;;;13.01;90.14
13934;BME280;7039;52.168;9.866;2023-04-15T16:45:41;100255.41;;;12.75;90.83
13934;BME280;7039;52.168;9.866;2023-04-15T16:48:08;100257.47;;;12.56;91.86
13934;BME280;7039;52.168;9.866;2023-04-15T16:50:35;100261.72;;;12.58;92.50
13934;BME280;7039;52.168;9.866;2023-04-15T16:53:02;100260.84;;;12.72;91.81
13934;BME280;7039;52.168;9.866;2023-04-15T16:55:28;100262.78;;;12.83;91.44
13934;BME280;7039;52.168;9.866;2023-04-15T16:57:55;100268.03;;;12.68;91.83
13934;BME280;7039;52.168;9.866;2023-04-15T17:00:23;100272.06;;;12.60;91.95
13934;BME280;7039;52.168;9.866;2023-04-15T17:02:49;100274.22;;;12.53;92.32
13934;BME280;7039;52.168;9.866;2023-04-15T17:05:16;100276.09;;;12.37;93.38
13934;BME280;7039;52.168;9.866;2023-04-15T17:07:42;100282.53;;;12.31;93.15
13934;BME280;7039;52.168;9.866;2023-04-15T17:10:09;100286.47;;;12.52;92.13
13934;BME280;7039;52.168;9.866;2023-04-15T17:12:38;100281.72;;;12.45;91.82
13934;BME280;7039;52.168;9.866;2023-04-15T17:15:05;100282.28;;;12.36;92.64
13934;BME280;7039;52.168;9.866;2023-04-15T17:17:33;100293.28;;;12.41;92.98
13934;BME280;7039;52.168;9.866;2023-04-15T17:20:00;100299.22;;;12.28;94.17
13934;BME280;7039;52.168;9.866;2023-04-15T17:22:26;100295.50;;;12.04;96.01
13934;BME280;7039;52.168;9.866;2023-04-15T17:24:53;100297.53;;;11.83;97.17
13934;BME280;7039;52.168;9.866;2023-04-15T17:27:19;100300.59;;;11.75;98.35
13934;BME280;7039;52.168;9.866;2023-04-15T17:29:46;100315.38;;;11.60;99.77
13934;BME280;7039;52.168;9.866;2023-04-15T17:32:12;100317.34;;;11.57;100.00
13934;BME280;7039;52.168;9.866;2023-04-15T17:34:41;100320.03;;;11.55;100.00
13934;BME280;7039;52.168;9.866;2023-04-15T17:37:10;100334.75;;;11.72;99.70
13934;BME280;7039;52.168;9.866;2023-04-15T17:39:37;100336.50;;;11.71;99.55
13934;BME280;7039;52.168;9.866;2023-04-15T17:42:03;100336.59;;;11.70;99.88
13934;BME280;7039;52.168;9.866;2023-04-15T17:44:30;100344.72;;;11.65;100.00
13934;BME280;7039;52.168;9.866;2023-04-15T17:46:56;100338.44;;;11.38;100.00
13934;BME280;7039;52.168;9.866;2023-04-15T17:49:23;100351.78;;;11.63;100.00
13934;BME280;7039;52.168;9.866;2023-04-15T17:51:51;100349.31;;;11.60;100.00
13934;BME280;7039;52.168;9.866;2023-04-15T17:54:19;100356.19;;;11.63;100.00
13934;BME280;7039;52.168;9.866;2023-04-15T17:56:45;100362.75;;;11.54;100.00
13934;BME280;7039;52.168;9.866;2023-04-15T17:59:13;100362.31;;;11.62;99.95
13934;BME280;7039;52.168;9.866;2023-04-15T18:01:39;100370.19;;;11.76;99.67
13934;BME280;7039;52.168;9.866;2023-04-15T18:04:09;100368.72;;;11.88;99.21
13934;BME280;7039;52.168;9.866;2023-04-15T18:06:36;100372.56;;;11.81;98.36
13934;BME280;7039;52.168;9.866;2023-04-15T18:09:03;100376.94;;;11.96;97.51
13934;BME280;7039;52.168;9.866;2023-04-15T18:11:30;100383.28;;;11.92;97.12
13934;BME280;7039;52.168;9.866;2023-04-15T18:13:57;100380.78;;;11.90;96.63
13934;BME280;7039;52.168;9.866;2023-04-15T18:16:24;100392.91;;;11.91;95.75
13934;BME280;7039;52.168;9.866;2023-04-15T18:18:51;100391.97;;;11.93;95.32
13934;BME280;7039;52.168;9.866;2023-04-15T18:21:17;100393.06;;;11.88;94.68
13934;BME280;7039;52.168;9.866;2023-04-15T18:23:44;100398.63;;;11.98;94.38
13934;BME280;7039;52.168;9.866;2023-04-15T18:28:47;100404.78;;;11.97;94.38
13934;BME280;7039;52.168;9.866;2023-04-15T18:31:14;100403.91;;;11.97;94.20
13934;BME280;7039;52.168;9.866;2023-04-15T18:33:40;100407.94;;;12.18;93.21
13934;BME280;7039;52.168;9.866;2023-04-15T18:36:08;100410.78;;;12.29;93.19
13934;BME280;7039;52.168;9.866;2023-04-15T18:38:35;100413.09;;;12.20;94.21
13934;BME280;7039;52.168;9.866;2023-04-15T18:41:02;100420.47;;;12.27;94.18
13934;BME280;7039;52.168;9.866;2023-04-15T18:43:29;100437.53;;;12.19;95.27
13934;BME280;7039;52.168;9.866;2023-04-15T18:45:57;100431.41;;;12.04;96.33
13934;BME280;7039;52.168;9.866;2023-04-15T18:48:25;100433.28;;;12.02;96.49
13934;BME280;7039;52.168;9.866;2023-04-15T18:50:52;100442.53;;;12.07;95.76
13934;BME280;7039;52.168;9.866;2023-04-15T18:53:19;100454.06;;;12.19;95.67
13934;BME280;7039;52.168;9.866;2023-04-15T18:55:45;100452.19;;;12.21;95.41
13934;BME280;7039;52.168;9.866;2023-04-15T18:58:12;100451.47;;;12.03;96.06
13934;BME280;7039;52.168;9.866;2023-04-15T19:00:38;100454.31;;;11.83;97.79
13934;BME280;7039;52.168;9.866;2023-04-15T19:03:09;100456.94;;;11.83;98.10
13934;BME280;7039;52.168;9.866;2023-04-15T19:05:35;100463.06;;;11.99;97.45
13934;BME280;7039;52.168;9.866;2023-04-15T19:08:02;100468.94;;;12.03;97.00
13934;BME280;7039;52.168;9.866;2023-04-15T19:10:28;100461.78;;;11.90;97.54
13934;BME280;7039;52.168;9.866;2023-04-15T19:12:55;100471.22;;;11.93;96.62
13934;BME280;7039;52.168;9.866;2023-04-15T19:15:21;100474.59;;;11.95;97.21
13934;BME280;7039;52.168;9.866;2023-04-15T19:17:48;100474.41;;;12.14;95.67
13934;BME280;7039;52.168;9.866;2023-04-15T19:20:16;100481.09;;;12.04;96.75
13934;BME280;7039;52.168;9.866;2023-04-15T19:22:42;100486.22;;;11.89;97.23
13934;BME280;7039;52.168;9.866;2023-04-15T19:25:09;100487.94;;;11.90;97.69
13934;BME280;7039;52.168;9.866;2023-04-15T19:27:35;100493.03;;;11.92;97.42
13934;BME280;7039;52.168;9.866;2023-04-15T19:30:03;100486.06;;;12.08;96.94
13934;BME280;7039;52.168;9.866;2023-04-15T19:32:29;100491.09;;;12.11;96.10
13934;BME280;7039;52.168;9.866;2023-04-15T19:34:56;100496.84;;;12.02;97.00
13934;BME280;7039;52.168;9.866;2023-04-15T19:37:23;100492.38;;;11.88;96.91
13934;BME280;7039;52.168;9.866;2023-04-15T19:39:52;100500.22;;;11.88;97.21
13934;BME280;7039;52.168;9.866;2023-04-15T19:42:19;100501.00;;;12.06;96.62
13934;BME280;7039;52.168;9.866;2023-04-15T19:44:45;100499.22;;;12.07;96.35
13934;BME280;7039;52.168;9.866;2023-04-15T19:47:12;100501.06;;;12.05;95.74
13934;BME280;7039;52.168;9.866;2023-04-15T19:49:38;100505.38;;;12.06;95.46
13934;BME280;7039;52.168;9.866;2023-04-15T19:52:05;100516.31;;;11.97;95.07
13934;BME280;7039;52.168;9.866;2023-04-15T19:54:33;100517.84;;;12.01;95.03
13934;BME280;7039;52.168;9.866;2023-04-15T19:56:59;100509.31;;;11.81;95.23
13934;BME280;7039;52.168;9.866;2023-04-15T19:59:26;100518.53;;;11.88;94.80
13934;BME280;7039;52.168;9.866;2023-04-15T20:01:53;100510.50;;;11.91;95.08
13934;BME280;7039;52.168;9.866;2023-04-15T20:04:19;100513.88;;;11.94;94.91
13934;BME280;7039;52.168;9.866;2023-04-15T20:06:46;100517.75;;;12.02;94.75
13934;BME280;7039;52.168;9.866;2023-04-15T20:09:13;100509.63;;;11.75;95.73
13934;BME280;7039;52.168;9.866;2023-04-15T20:11:41;100513.91;;;11.76;95.99
13934;BME280;7039;52.168;9.866;2023-04-15T20:14:07;100514.44;;;11.83;96.08
13934;BME280;7039;52.168;9.866;2023-04-15T20:16:34;100512.50;;;11.86;95.36
13934;BME280;7039;52.168;9.866;2023-04-15T20:19:02;100526.38;;;11.88;94.91
13934;BME280;7039;52.168;9.866;2023-04-15T20:21:32;100529.00;;;11.71;95.84
13934;BME280;7039;52.168;9.866;2023-04-15T20:23:59;100520.16;;;11.74;95.80
13934;BME280;7039;52.168;9.866;2023-04-15T20:26:25;100527.50;;;11.83;95.52
13934;BME280;7039;52.168;9.866;2023-04-15T20:28:53;100532.56;;;11.70;95.86
13934;BME280;7039;52.168;9.866;2023-04-15T20:31:20;100530.69;;;11.56;96.30
13934;BME280;7039;52.168;9.866;2023-04-15T20:33:47;100528.16;;;11.55;96.70
13934;BME280;7039;52.168;9.866;2023-04-15T20:36:13;100532.22;;;11.27;98.20
13934;BME280;7039;52.168;9.866;2023-04-15T20:38:40;100535.06;;;11.22;98.74
13934;BME280;7039;52.168;9.866;2023-04-15T20:41:06;100541.44;;;11.17;99.03
13934;BME280;7039;52.168;9.866;2023-04-15T20:43:32;100536.03;;;11.37;98.22
13934;BME280;7039;52.168;9.866;2023-04-15T20:46:00;100537.56;;;11.24;98.67
13934;BME280;7039;52.168;9.866;2023-04-15T20:48:27;100540.88;;;11.27;98.61
13934;BME280;7039;52.168;9.866;2023-04-15T20:50:53;100546.59;;;11.18;98.44
13934;BME280;7039;52.168;9.866;2023-04-15T20:53:20;100536.31;;;11.15;99.00
13934;BME280;7039;52.168;9.866;2023-04-15T20:55:46;100548.72;;;11.10;99.16
13934;BME280;7039;52.168;9.866;2023-04-15T20:58:13;100549.03;;;11.21;97.99
13934;BME280;7039;52.168;9.866;2023-04-15T21:00:39;100548.38;;;11.18;97.61
13934;BME280;7039;52.168;9.866;2023-04-15T21:03:07;100549.19;;;11.18;97.02
13934;BME280;7039;52.168;9.866;2023-04-15T21:05:35;100551.09;;;11.15;96.97
13934;BME280;7039;52.168;9.866;2023-04-15T21:08:02;100554.06;;;11.42;96.00
13934;BME280;7039;52.168;9.866;2023-04-15T21:10:29;100558.38;;;11.43;96.01
13934;BME280;7039;52.168;9.866;2023-04-15T21:12:59;100554.75;;;11.45;94.67
13934;BME280;7039;52.168;9.866;2023-04-15T21:15:26;100565.72;;;11.52;94.65
13934;BME280;7039;52.168;9.866;2023-04-15T21:17:52;100565.09;;;11.31;95.11
13934;BME280;7039;52.168;9.866;2023-04-15T21:20:22;100566.78;;;11.15;95.19
13934;BME280;7039;52.168;9.866;2023-04-15T21:22:48;100563.91;;;11.19;94.19
13934;BME280;7039;52.168;9.866;2023-04-15T21:25:16;100570.63;;;11.07;94.79
13934;BME280;7039;52.168;9.866;2023-04-15T21:27:43;100575.06;;;11.23;95.10
13934;BME280;7039;52.168;9.866;2023-04-15T21:30:10;100576.16;;;11.01;95.97
13934;BME280;7039;52.168;9.866;2023-04-15T21:32:37;100578.09;;;11.15;95.72
13934;BME280;7039;52.168;9.866;2023-04-15T21:35:05;100582.31;;;11.18;94.85
13934;BME280;7039;52.168;9.866;2023-04-15T21:37:33;100585.56;;;11.21;93.91
13934;BME280;7039;52.168;9.866;2023-04-15T21:39:59;100585.34;;;11.26;92.40
13934;BME280;7039;52.168;9.866;2023-04-15T21:42:25;100597.03;;;11.19;92.78
13934;BME280;7039;52.168;9.866;2023-04-15T21:44:52;100589.59;;;11.11;92.25
13934;BME280;7039;52.168;9.866;2023-04-15T21:47:18;100593.19;;;11.26;91.59
13934;BME280;7039;52.168;9.866;2023-04-15T21:49:45;100596.41;;;11.31;91.08
13934;BME280;7039;52.168;9.866;2023-04-15T21:52:11;100609.47;;;11.14;91.67
13934;BME280;7039;52.168;9.866;2023-04-15T21:54:39;100608.31;;;11.37;90.90
13934;BME280;7039;52.168;9.866;2023-04-15T21:57:06;100604.38;;;11.28;91.53
13934;BME280;7039;52.168;9.866;2023-04-15T21:59:32;100610.16;;;11.35;91.22
13934;BME280;7039;52.168;9.866;2023-04-15T22:01:58;100618.44;;;11.08;91.89
13934;BME280;7039;52.168;9.866;2023-04-15T22:04:25;100609.25;;;11.36;91.11
13934;BME280;7039;52.168;9.866;2023-04-15T22:06:51;100616.38;;;11.15;91.61
13934;BME280;7039;52.168;9.866;2023-04-15T22:09:19;100626.75;;;11.16;91.18
13934;BME280;7039;52.168;9.866;2023-04-15T22:11:48;100618.91;;;11.16;90.77
13934;BME280;7039;52.168;9.866;2023-04-15T22:14:14;100624.38;;;11.29;90.27
13934;BME280;7039;52.168;9.866;2023-04-15T22:16:41;100625.56;;;10.87;91.11
13934;BME280;7039;52.168;9.866;2023-04-15T22:19:08;100618.28;;;10.94;90.94
13934;BME280;7039;52.168;9.866;2023-04-15T22:21:34;100623.78;;;10.87;90.33
13934;BME280;7039;52.168;9.866;2023-04-15T22:24:01;100634.22;;;10.87;90.95
13934;BME280;7039;52.168;9.866;2023-04-15T22:26:27;100631.06;;;10.81;90.90
13934;BME280;7039;52.168;9.866;2023-04-15T22:28:55;100633.66;;;11.00;90.73
13934;BME280;7039;52.168;9.866;2023-04-15T22:31:22;100635.88;;;10.90;90.76
13934;BME280;7039;52.168;9.866;2023-04-15T22:33:48;100638.91;;;10.81;90.85
13934;BME280;7039;52.168;9.866;2023-04-15T22:36:14;100643.28;;;10.80;91.53
13934;BME280;7039;52.168;9.866;2023-04-15T22:38:41;100644.00;;;10.84;91.46
13934;BME280;7039;52.168;9.866;2023-04-15T22:41:08;100646.38;;;10.89;91.07
13934;BME280;7039;52.168;9.866;2023-04-15T22:43:34;100643.19;;;10.64;92.24
13934;BME280;7039;52.168;9.866;2023-04-15T22:46:02;100652.94;;;10.78;92.30
13934;BME280;7039;52.168;9.866;2023-04-15T22:48:28;100647.94;;;10.56;92.61
13934;BME280;7039;52.168;9.866;2023-04-15T22:50:55;100652.72;;;10.65;92.32
13934;BME280;7039;52.168;9.866;2023-04-15T22:53:22;100655.50;;;10.80;92.07
13934;BME280;7039;52.168;9.866;2023-04-15T22:55:48;100661.88;;;10.74;92.07
13934;BME280;7039;52.168;9.866;2023-04-15T22:58:16;100659.97;;;10.59;92.01
13934;BME280;7039;52.168;9.866;2023-04-15T23:00:42;100654.53;;;10.63;92.13
13934;BME280;7039;52.168;9.866;2023-04-15T23:03:10;100668.63;;;10.59;92.34
13934;BME280;7039;52.168;9.866;2023-04-15T23:05:37;100663.44;;;10.40;93.27
13934;BME280;7039;52.168;9.866;2023-04-15T23:08:05;100666.16;;;10.37;93.32
13934;BME280;7039;52.168;9.866;2023-04-15T23:10:32;100679.16;;;10.39;93.15
13934;BME280;7039;52.168;9.866;2023-04-15T23:12:58;100676.69;;;10.36;93.24
13934;BME280;7039;52.168;9.866;2023-04-15T23:15:25;100679.19;;;10.18;94.29
13934;BME280;7039;52.168;9.866;2023-04-15T23:17:51;100686.28;;;10.15;94.59
13934;BME280;7039;52.168;9.866;2023-04-15T23:20:19;100681.78;;;10.18;94.86
13934;BME280;7039;52.168;9.866;2023-04-15T23:22:45;100678.19;;;10.02;95.28
13934;BME280;7039;52.168;9.866;2023-04-15T23:25:12;100692.69;;;10.08;95.38
13934;BME280;7039;52.168;9.866;2023-04-15T23:27:38;100692.56;;;10.11;95.39
13934;BME280;7039;52.168;9.866;2023-04-15T23:30:06;100697.25;;;10.02;95.41
13934;BME280;7039;52.168;9.866;2023-04-15T23:32:32;100684.16;;;10.04;95.66
13934;BME280;7039;52.168;9.866;2023-04-15T23:34:59;100693.25;;;9.95;96.07
13934;BME280;7039;52.168;9.866;2023-04-15T23:37:28;100692.84;;;10.04;96.16
13934;BME280;7039;52.168;9.866;2023-04-15T23:39:55;100694.72;;;10.01;95.60
13934;BME280;7039;52.168;9.866;2023-04-15T23:42:21;100690.53;;;9.97;95.79
13934;BME280;7039;52.168;9.866;2023-04-15T23:44:48;100691.72;;;9.90;96.05
13934;BME280;7039;52.168;9.866;2023-04-15T23:47:15;100698.19;;;10.01;95.98
13934;BME280;7039;52.168;9.866;2023-04-15T23:49:41;100696.94;;;9.90;96.32
13934;BME280;7039;52.168;9.866;2023-04-15T23:52:08;100700.84;;;10.00;95.78
13934;BME280;7039;52.168;9.866;2023-04-15T23:54:36;100696.84;;;10.12;95.44
13934;BME280;7039;52.168;9.866;2023-04-15T23:57:02;100700.66;;;10.04;95.29
13934;BME280;7039;52.168;9.866;2023-04-15T23:59:29;100707.47;;;10.07;95.31
